createdAt,value
2022-08-14T00:02:01.526Z,58.84
2022-08-14T00:04:35.763Z,58.77
2022-08-14T00:07:10.718Z,59.12
2022-08-14T00:10:02.023Z,59.16
2022-08-14T00:12:33.447Z,59.24
2022-08-14T00:15:19.303Z,59.32
2022-08-14T00:17:53.293Z,59.72
2022-08-14T00:20:30.254Z,59.80
2022-08-14T00:23:12.059Z,59.87
2022-08-14T00:25:54.085Z,59.89
2022-08-14T00:28:35.542Z,60.17
2022-08-14T00:31:08.113Z,60.39
2022-08-14T00:33:52.294Z,60.31
2022-08-14T00:36:36.735Z,60.63
2022-08-14T00:39:14.998Z,60.50
2022-08-14T00:41:46.553Z,60.93
2022-08-14T00:44:14.711Z,60.85
2022-08-14T00:46:50.468Z,61.18
2022-08-14T00:49:21.124Z,61.13
2022-08-14T00:51:52.240Z,61.31
2022-08-14T00:54:21.998Z,61.68
2022-08-14T00:56:55.357Z,61.76
2022-08-14T00:59:25.108Z,61.83
2022-08-14T01:01:54.971Z,61.93
2022-08-14T01:04:51.912Z,62.03
2022-08-14T01:07:20.893Z,62.07
2022-08-14T01:09:50.777Z,62.05
2022-08-14T01:12:26.332Z,62.31
2022-08-14T01:14:58.279Z,62.82
2022-08-14T01:17:49.610Z,62.80
2022-08-14T01:20:50.914Z,63.13
2022-08-14T01:23:21.805Z,62.86
2022-08-14T01:25:51.867Z,63.04
2022-08-14T01:28:46.336Z,63.06
2022-08-14T01:31:12.414Z,63.34
2022-08-14T01:33:59.347Z,63.65
2022-08-14T01:36:36.726Z,63.52
2022-08-14T01:39:12.914Z,63.51
2022-08-14T01:41:43.379Z,63.64
2022-08-14T01:44:33.562Z,63.96
2022-08-14T01:47:09.596Z,64.29
2022-08-14T01:49:45.962Z,64.45
2022-08-14T01:52:33.568Z,64.53
2022-08-14T01:55:03.885Z,64.49
2022-08-14T01:58:00.640Z,64.38
2022-08-14T02:00:27.690Z,64.70
2022-08-14T02:02:57.093Z,64.79
2022-08-14T02:05:29.366Z,64.87
2022-08-14T02:08:09.798Z,65.14
2022-08-14T02:10:46.626Z,65.14
2022-08-14T02:13:19.064Z,64.91
2022-08-14T02:15:48.419Z,65.47
2022-08-14T02:18:18.196Z,65.23
2022-08-14T02:20:48.659Z,65.55
2022-08-14T02:23:16.467Z,65.43
2022-08-14T02:25:54.341Z,65.83
2022-08-14T02:28:58.306Z,65.66
2022-08-14T02:31:12.215Z,65.68
2022-08-14T02:33:43.310Z,65.91
2022-08-14T02:37:04.720Z,65.71
2022-08-14T02:39:00.654Z,65.65
2022-08-14T02:41:31.839Z,65.88
2022-08-14T02:44:06.517Z,65.75
2022-08-14T02:46:36.158Z,65.51
2022-08-14T02:49:08.915Z,65.86
2022-08-14T02:51:39.251Z,66.06
2022-08-14T02:54:08.310Z,65.99
2022-08-14T02:57:16.476Z,66.25
2022-08-14T02:59:28.806Z,66.34
2022-08-14T03:01:57.343Z,66.21
2022-08-14T03:04:28.852Z,66.20
2022-08-14T03:07:07.408Z,66.74
2022-08-14T03:10:25.142Z,66.59
2022-08-14T03:12:30.752Z,66.60
2022-08-14T03:15:00.426Z,66.46
2022-08-14T03:17:31.901Z,66.37
2022-08-14T03:20:11.776Z,66.40
2022-08-14T03:22:42.071Z,66.79
2022-08-14T03:25:12.082Z,66.69
2022-08-14T03:27:48.585Z,66.98
2022-08-14T03:30:39.105Z,66.98
2022-08-14T03:33:12.116Z,67.03
2022-08-14T03:36:07.625Z,67.05
2022-08-14T03:39:16.104Z,67.24
2022-08-14T03:41:20.202Z,67.33
2022-08-14T03:43:57.724Z,67.41
2022-08-14T03:46:38.976Z,67.59
2022-08-14T03:49:29.273Z,67.78
2022-08-14T03:52:01.081Z,67.98
2022-08-14T03:54:30.038Z,67.99
2022-08-14T03:57:02.787Z,68.25
2022-08-14T03:59:33.987Z,68.13
2022-08-14T04:02:04.748Z,68.10
2022-08-14T04:04:53.270Z,68.23
2022-08-14T04:07:22.374Z,68.03
2022-08-14T04:09:50.171Z,68.10
2022-08-14T04:12:26.440Z,68.15
2022-08-14T04:14:56.308Z,68.44
2022-08-14T04:17:24.071Z,68.01
2022-08-14T04:19:51.997Z,68.18
2022-08-14T04:22:20.560Z,68.19
2022-08-14T04:24:50.316Z,68.00
2022-08-14T04:27:18.788Z,68.00
2022-08-14T04:29:46.536Z,68.06
2022-08-14T04:33:02.615Z,68.01
2022-08-14T04:35:07.722Z,67.96
2022-08-14T04:37:56.439Z,68.24
2022-08-14T04:40:42.086Z,68.21
2022-08-14T04:43:38.498Z,68.01
2022-08-14T04:46:09.489Z,68.12
2022-08-14T04:48:43.707Z,68.07
2022-08-14T04:51:20.406Z,68.06
2022-08-14T04:53:50.151Z,68.12
2022-08-14T04:56:30.456Z,67.59
2022-08-14T04:59:10.630Z,66.52
2022-08-14T05:01:45.241Z,65.46
2022-08-14T05:04:20.191Z,63.31
2022-08-14T05:06:49.686Z,61.54
2022-08-14T05:09:21.842Z,60.66
2022-08-14T05:11:51.309Z,59.28
2022-08-14T05:14:46.730Z,58.39
2022-08-14T05:17:10.556Z,57.44
2022-08-14T05:19:44.941Z,56.74
2022-08-14T05:22:28.778Z,55.54
2022-08-14T05:24:56.549Z,54.38
2022-08-14T05:27:24.317Z,52.71
2022-08-14T05:29:56.685Z,52.20
2022-08-14T05:32:27.374Z,50.92
2022-08-14T05:34:59.114Z,49.85
2022-08-14T05:37:28.706Z,49.04
2022-08-14T05:39:59.178Z,48.81
2022-08-14T05:42:29.396Z,47.62
2022-08-14T05:45:00.323Z,47.03
2022-08-14T05:47:28.902Z,45.52
2022-08-14T05:50:03.344Z,43.38
2022-08-14T05:52:39.175Z,41.93
2022-08-14T05:55:09.462Z,40.84
2022-08-14T05:57:47.663Z,39.76
2022-08-14T06:00:28.192Z,38.31
2022-08-14T06:02:58.511Z,37.17
2022-08-14T06:05:30.337Z,36.11
2022-08-14T06:07:59.162Z,34.63
2022-08-14T06:10:28.728Z,35.59
2022-08-14T06:12:58.241Z,33.98
2022-08-14T06:15:29.959Z,33.73
2022-08-14T06:17:59.879Z,31.78
2022-08-14T06:20:31.323Z,31.53
2022-08-14T06:23:06.347Z,30.15
2022-08-14T06:25:36.827Z,30.11
2022-08-14T06:28:05.260Z,28.77
2022-08-14T06:30:57.222Z,27.74
2022-08-14T06:33:30.167Z,26.82
2022-08-14T06:36:18.278Z,26.40
2022-08-14T06:38:46.406Z,25.31
2022-08-14T06:49:16.598Z,24.16
2022-08-14T06:52:54.642Z,23.57
2022-08-14T06:56:21.255Z,21.93
2022-08-14T07:00:27.290Z,21.39
2022-08-14T07:07:17.234Z,19.66
2022-08-14T07:09:50.713Z,18.68
2022-08-14T07:12:54.653Z,18.67
2022-08-14T07:15:07.896Z,18.46
2022-08-14T07:17:36.496Z,18.35
2022-08-14T07:20:07.202Z,19.25
2022-08-14T07:22:55.976Z,18.92
2022-08-14T07:25:32.814Z,18.28
2022-08-14T07:28:01.533Z,17.69
2022-08-14T07:30:33.767Z,17.36
2022-08-14T07:33:02.891Z,16.69
2022-08-14T07:35:37.525Z,17.17
2022-08-14T07:38:20.234Z,16.54
2022-08-14T07:40:52.926Z,15.90
2022-08-14T07:43:21.638Z,15.67
2022-08-14T07:45:50.953Z,14.69
2022-08-14T07:48:25.288Z,14.57
2022-08-14T07:50:59.477Z,13.86
2022-08-14T07:53:36.648Z,14.21
2022-08-14T07:56:44.492Z,13.38
2022-08-14T07:58:58.793Z,13.18
2022-08-14T08:01:30.773Z,13.85
2022-08-14T08:04:00.313Z,13.10
2022-08-14T08:06:30.081Z,12.44
2022-08-14T08:09:03.212Z,11.45
2022-08-14T08:11:37.444Z,11.59
2022-08-14T08:14:16.516Z,11.90
2022-08-14T08:16:47.196Z,11.73
2022-08-14T08:19:18.765Z,10.69
2022-08-14T08:21:47.678Z,10.97
2022-08-14T08:24:19.925Z,10.96
2022-08-14T08:26:50.635Z,11.12
2022-08-14T08:29:28.360Z,11.28
2022-08-14T08:32:01.870Z,10.82
2022-08-14T08:34:45.308Z,11.78
2022-08-14T08:37:14.336Z,11.01
2022-08-14T08:40:02.265Z,11.13
2022-08-14T08:42:38.222Z,10.58
2022-08-14T08:45:11.865Z,9.84
2022-08-14T08:47:41.040Z,9.81
2022-08-14T08:50:23.425Z,10.39
2022-08-14T08:53:02.158Z,10.24
2022-08-14T08:55:33.933Z,9.79
2022-08-14T08:58:12.448Z,9.19
2022-08-14T09:00:54.129Z,9.26
2022-08-14T09:03:25.625Z,9.53
2022-08-14T09:05:58.682Z,9.93
2022-08-14T09:08:31.299Z,9.49
2022-08-14T09:11:02.987Z,8.91
2022-08-14T09:13:50.404Z,8.77
2022-08-14T09:16:21.882Z,8.16
2022-08-14T09:18:53.281Z,8.38
2022-08-14T09:21:23.806Z,7.69
2022-08-14T09:24:29.599Z,8.10
2022-08-14T09:26:43.975Z,8.08
2022-08-14T09:29:23.240Z,8.04
2022-08-14T09:31:57.680Z,8.32
2022-08-14T09:34:58.458Z,8.14
2022-08-14T09:37:41.740Z,7.46
2022-08-14T09:40:21.991Z,7.83
2022-08-14T09:42:58.423Z,8.02
2022-08-14T09:45:39.996Z,8.73
2022-08-14T09:48:27.582Z,7.24
2022-08-14T09:54:18.168Z,7.46
2022-08-14T09:56:30.398Z,8.02
2022-08-14T09:59:01.157Z,8.03
2022-08-14T10:01:37.660Z,8.45
2022-08-14T10:04:32.842Z,7.53
2022-08-14T10:07:04.942Z,7.90
2022-08-14T10:09:35.043Z,7.78
2022-08-14T10:12:05.049Z,8.15
2022-08-14T10:14:53.391Z,7.55
2022-08-14T10:17:38.464Z,6.57
2022-08-14T10:20:39.380Z,7.57
2022-08-14T10:23:12.708Z,6.89
2022-08-14T10:25:46.316Z,8.22
2022-08-14T10:28:51.597Z,8.58
2022-08-14T10:31:03.564Z,7.60
2022-08-14T10:33:34.188Z,6.85
2022-08-14T10:36:02.725Z,7.97
2022-08-14T10:38:33.712Z,7.67
2022-08-14T10:41:13.200Z,8.85
2022-08-14T10:43:42.872Z,7.16
2022-08-14T10:47:37.357Z,7.99
2022-08-14T10:49:05.141Z,7.53
2022-08-14T10:51:39.887Z,7.19
2022-08-14T10:54:26.085Z,6.95
2022-08-14T10:56:59.986Z,8.27
2022-08-14T10:59:43.401Z,9.66
2022-08-14T11:02:44.864Z,9.51
2022-08-14T11:05:14.829Z,8.76
2022-08-14T11:07:57.176Z,8.48
2022-08-14T11:10:42.769Z,9.10
2022-08-14T11:13:12.054Z,8.39
2022-08-14T11:15:41.033Z,8.60
2022-08-14T11:18:08.837Z,6.80
2022-08-14T11:20:54.142Z,8.36
2022-08-14T11:23:37.727Z,8.43
2022-08-14T11:26:10.330Z,7.98
2022-08-14T11:28:47.832Z,8.25
2022-08-14T11:31:19.726Z,8.04
2022-08-14T11:33:51.149Z,7.76
2022-08-14T11:36:24.363Z,9.55
2022-08-14T11:39:33.725Z,9.55
2022-08-14T11:42:57.102Z,9.38
2022-08-14T11:44:53.839Z,11.17
2022-08-14T11:47:24.673Z,12.60
2022-08-14T11:49:53.226Z,14.16
2022-08-14T12:04:53.178Z,18.44
2022-08-14T12:07:24.798Z,20.08
2022-08-14T12:09:56.381Z,20.65
2022-08-14T12:13:03.457Z,19.85
2022-08-14T12:15:36.280Z,21.16
2022-08-14T12:18:06.775Z,22.36
2022-08-14T12:21:00.155Z,21.77
2022-08-14T12:23:51.843Z,22.09
2022-08-14T12:26:39.178Z,22.09
2022-08-14T12:29:13.200Z,22.07
2022-08-14T12:31:44.898Z,23.26
2022-08-14T12:34:20.613Z,21.76
2022-08-14T12:36:51.460Z,23.83
2022-08-14T12:39:23.843Z,21.58
2022-08-14T12:41:57.315Z,23.22
2022-08-14T12:44:54.379Z,23.10
2022-08-14T12:47:31.265Z,21.31
2022-08-14T12:49:59.475Z,22.36
2022-08-14T12:52:42.921Z,21.55
2022-08-14T12:58:29.273Z,23.52
2022-08-14T13:01:16.634Z,21.65
2022-08-14T13:03:47.963Z,23.38
2022-08-14T13:06:20.351Z,21.69
2022-08-14T13:08:53.202Z,23.20
2022-08-14T13:11:25.540Z,24.02
2022-08-14T13:13:59.567Z,23.78
2022-08-14T13:16:37.748Z,23.16
2022-08-14T13:19:11.075Z,22.50
2022-08-14T13:22:05.047Z,22.58
2022-08-14T13:24:39.993Z,22.55
2022-08-14T13:27:11.130Z,22.36
2022-08-14T13:29:46.471Z,23.32
2022-08-14T13:32:16.336Z,23.30
2022-08-14T13:35:17.479Z,23.73
2022-08-14T13:37:54.165Z,23.97
2022-08-14T13:40:29.810Z,25.76
2022-08-14T13:42:59.512Z,23.00
2022-08-14T13:45:59.722Z,23.47
2022-08-14T13:48:30.715Z,23.29
2022-08-14T13:51:03.848Z,23.83
2022-08-14T13:53:41.477Z,23.29
2022-08-14T13:56:14.945Z,23.90
2022-08-14T13:59:07.112Z,25.13
2022-08-14T14:01:42.860Z,23.43
2022-08-14T14:04:19.213Z,24.14
2022-08-14T14:06:51.188Z,23.61
2022-08-14T14:09:43.914Z,25.81
2022-08-14T14:12:37.534Z,22.78
2022-08-14T14:15:17.793Z,23.43
2022-08-14T14:18:15.321Z,23.61
2022-08-14T14:23:57.260Z,24.33
2022-08-14T14:26:25.715Z,23.37
2022-08-14T14:28:57.112Z,24.54
2022-08-14T14:31:30.247Z,24.98
2022-08-14T14:34:00.993Z,24.06
2022-08-14T14:36:36.406Z,23.37
2022-08-14T14:39:07.471Z,23.26
2022-08-14T14:41:43.692Z,24.14
2022-08-14T14:44:15.873Z,25.13
2022-08-14T14:46:51.038Z,24.29
2022-08-14T14:49:25.899Z,24.24
2022-08-14T14:52:23.373Z,24.27
2022-08-14T14:54:56.784Z,25.47
2022-08-14T14:57:30.368Z,24.45
2022-08-14T15:00:06.834Z,24.47
2022-08-14T15:02:42.046Z,25.77
2022-08-14T15:05:18.145Z,24.96
2022-08-14T15:07:54.227Z,24.68
2022-08-14T15:13:33.469Z,26.33
2022-08-14T15:16:01.445Z,27.45
2022-08-14T15:18:36.642Z,27.50
2022-08-14T15:21:07.571Z,27.93
2022-08-14T15:27:09.561Z,30.36
2022-08-14T15:30:06.656Z,29.01
2022-08-14T15:45:25.450Z,29.78
2022-08-14T15:47:55.989Z,26.27
2022-08-14T15:50:26.148Z,25.75
2022-08-14T15:52:54.754Z,25.12
2022-08-14T15:55:23.291Z,25.55
2022-08-14T15:58:03.505Z,25.62
2022-08-14T16:00:54.628Z,25.79
2022-08-14T16:03:35.133Z,28.46
2022-08-14T16:06:05.904Z,26.26
2022-08-14T16:08:42.664Z,28.56
2022-08-14T16:11:17.093Z,28.11
2022-08-14T16:13:47.849Z,30.92
2022-08-14T16:16:48.192Z,30.20
2022-08-14T16:19:11.499Z,31.22
2022-08-14T16:22:01.446Z,31.32
2022-08-14T16:24:35.961Z,31.05
2022-08-14T16:27:37.071Z,29.87
2022-08-14T16:30:24.780Z,31.61
2022-08-14T16:32:59.690Z,31.13
2022-08-14T16:35:43.139Z,32.75
2022-08-14T16:38:48.021Z,35.52
2022-08-14T16:41:26.305Z,34.59
2022-08-14T16:43:59.374Z,33.81
2022-08-14T16:46:28.684Z,32.91
2022-08-14T16:48:59.114Z,34.38
2022-08-14T16:51:27.974Z,35.75
2022-08-14T16:53:58.919Z,35.68
2022-08-14T16:56:30.868Z,36.53
2022-08-14T16:59:07.564Z,36.41
2022-08-14T17:01:36.951Z,37.11
2022-08-14T17:04:14.822Z,36.05
2022-08-14T17:06:54.838Z,36.62
2022-08-14T17:09:29.807Z,36.29
2022-08-14T17:12:07.555Z,37.14
2022-08-14T17:14:51.138Z,36.04
2022-08-14T17:17:21.235Z,37.70
2022-08-14T17:19:59.849Z,37.79
2022-08-14T17:22:50.050Z,37.39
2022-08-14T17:25:22.519Z,37.87
2022-08-14T17:28:52.131Z,37.82
2022-08-14T17:31:02.426Z,39.42
2022-08-14T17:33:33.475Z,39.67
2022-08-14T17:36:20.836Z,39.05
2022-08-14T17:39:06.517Z,39.79
2022-08-14T17:41:38.604Z,40.78
2022-08-14T17:44:33.482Z,40.71
2022-08-14T17:47:13.345Z,41.52
2022-08-14T17:49:52.135Z,41.01
2022-08-14T17:52:34.781Z,41.47
2022-08-14T17:56:03.336Z,41.63
2022-08-14T17:58:01.430Z,41.21
2022-08-14T18:00:51.463Z,41.84
2022-08-14T18:03:50.891Z,41.98
2022-08-14T18:06:39.085Z,41.71
2022-08-14T18:09:00.483Z,42.49
2022-08-14T18:11:45.522Z,43.22
2022-08-14T18:14:32.685Z,42.76
2022-08-14T18:17:04.589Z,43.21
2022-08-14T18:19:36.540Z,43.92
2022-08-14T18:22:31.255Z,43.57
2022-08-14T18:25:02.570Z,44.71
2022-08-14T18:27:36.157Z,44.44
2022-08-14T18:30:32.009Z,44.65
2022-08-14T18:32:55.425Z,45.24
2022-08-14T18:35:45.707Z,45.59
2022-08-14T18:38:26.147Z,45.72
2022-08-14T18:41:36.424Z,45.51
2022-08-14T18:44:10.182Z,45.99
2022-08-14T18:47:17.316Z,45.79
2022-08-14T18:50:01.120Z,45.96
2022-08-14T18:52:45.785Z,46.07
2022-08-14T18:55:55.842Z,47.05
2022-08-14T18:58:34.153Z,48.14
2022-08-14T19:01:04.536Z,47.62
2022-08-14T19:03:48.762Z,47.40
2022-08-14T19:06:16.892Z,47.85
2022-08-14T19:08:47.168Z,48.00
2022-08-14T19:11:50.394Z,48.05
2022-08-14T19:14:47.535Z,48.15
2022-08-14T19:18:13.845Z,47.60
2022-08-14T19:20:47.450Z,48.46
2022-08-14T19:23:18.414Z,48.98
2022-08-14T19:25:52.739Z,49.08
2022-08-14T19:28:30.823Z,49.45
2022-08-14T19:31:42.393Z,48.69
2022-08-14T19:34:40.400Z,49.06
2022-08-14T19:37:47.445Z,49.01
2022-08-14T19:40:30.033Z,49.45
2022-08-14T19:42:58.536Z,50.05
2022-08-14T19:45:30.071Z,50.19
2022-08-14T19:48:05.257Z,49.99
2022-08-14T19:50:40.250Z,49.75
2022-08-14T19:53:12.081Z,50.37
2022-08-14T19:55:47.186Z,49.92
2022-08-14T19:58:16.439Z,49.92
2022-08-14T20:00:55.842Z,50.27
2022-08-14T20:03:26.284Z,50.44
2022-08-14T20:06:14.378Z,50.73
2022-08-14T20:10:58.747Z,50.65
2022-08-14T20:11:58.508Z,50.51
2022-08-14T20:14:29.900Z,50.92
2022-08-14T20:17:06.339Z,51.06
2022-08-14T20:19:37.766Z,50.81
2022-08-14T20:22:37.218Z,50.68
2022-08-14T20:25:11.479Z,51.40
2022-08-14T20:27:44.083Z,51.49
2022-08-14T20:30:34.513Z,51.51
2022-08-14T20:33:07.687Z,51.70
2022-08-14T20:35:43.474Z,51.37
2022-08-14T20:38:30.273Z,51.80
2022-08-14T20:41:01.774Z,51.63
2022-08-14T20:43:53.721Z,52.28
2022-08-14T20:46:29.631Z,52.59
2022-08-14T20:49:00.003Z,52.24
2022-08-14T20:51:37.126Z,52.61
2022-08-14T20:54:07.517Z,52.36
2022-08-14T20:56:38.206Z,52.62
2022-08-14T20:59:18.058Z,52.97
2022-08-14T21:01:51.917Z,52.79
2022-08-14T21:04:31.440Z,52.35
2022-08-14T21:07:24.775Z,52.91
2022-08-14T21:10:06.492Z,52.97
2022-08-14T21:13:25.395Z,53.21
2022-08-14T21:15:40.401Z,53.24
2022-08-14T21:18:13.795Z,53.23
2022-08-14T21:20:46.258Z,53.50
2022-08-14T21:23:15.967Z,53.42
2022-08-14T21:25:45.661Z,53.59
2022-08-14T21:28:29.296Z,54.12
2022-08-14T21:30:58.565Z,54.36
2022-08-14T21:33:27.871Z,54.54
2022-08-14T21:36:00.122Z,54.36
2022-08-14T21:38:37.303Z,54.85
2022-08-14T21:41:42.506Z,54.99
2022-08-14T21:44:05.272Z,54.72
2022-08-14T21:46:50.047Z,54.67
2022-08-14T21:49:22.742Z,54.58
2022-08-14T21:51:57.800Z,54.99
2022-08-14T21:54:49.684Z,55.22
2022-08-14T21:57:56.652Z,55.28
2022-08-14T22:00:31.578Z,55.94
2022-08-14T22:03:03.422Z,55.53
2022-08-14T22:05:33.106Z,55.95
2022-08-14T22:08:03.122Z,57.01
2022-08-14T22:10:33.770Z,56.04
2022-08-14T22:13:02.280Z,56.96
2022-08-14T22:15:33.465Z,56.53
2022-08-14T22:18:04.003Z,56.68
2022-08-14T22:20:36.278Z,56.67
2022-08-14T22:23:08.500Z,56.87
2022-08-14T22:25:41.216Z,56.96
2022-08-14T22:28:14.680Z,57.49
2022-08-14T22:30:44.614Z,57.08
2022-08-14T22:33:13.294Z,57.27
2022-08-14T22:35:43.970Z,57.06
2022-08-14T22:38:36.991Z,57.52
2022-08-14T22:41:25.708Z,57.03
2022-08-14T22:43:50.941Z,57.43
2022-08-14T22:46:20.135Z,57.60
2022-08-14T22:48:49.704Z,57.39
2022-08-14T22:51:23.270Z,57.56
2022-08-14T22:53:53.996Z,57.50
2022-08-14T22:56:30.188Z,57.07
2022-08-14T22:59:01.414Z,57.35
2022-08-14T23:01:55.621Z,57.45
2022-08-14T23:04:34.381Z,57.44
2022-08-14T23:07:21.645Z,57.18
2022-08-14T23:09:55.814Z,57.75
2022-08-14T23:12:28.080Z,57.43
2022-08-14T23:14:57.515Z,58.06
2022-08-14T23:17:25.679Z,58.13
2022-08-14T23:19:56.202Z,57.99
2022-08-14T23:22:26.476Z,58.54
2022-08-14T23:24:56.747Z,58.67
2022-08-14T23:27:31.647Z,58.80
2022-08-14T23:30:00.066Z,59.50
2022-08-14T23:32:30.141Z,58.93
2022-08-14T23:35:00.683Z,58.75
2022-08-14T23:37:31.183Z,58.49
2022-08-14T23:39:59.850Z,58.87
2022-08-14T23:42:40.006Z,58.73
2022-08-14T23:45:09.750Z,58.70
2022-08-14T23:47:51.749Z,58.42
2022-08-14T23:50:34.196Z,58.46
2022-08-14T23:53:07.100Z,58.75
2022-08-14T23:55:35.742Z,58.62
2022-08-14T23:58:10.139Z,58.82
